sensor_id;sensor_type;location;lat;lon;timestamp;P1;durP1;ratioP1;P2;durP2;ratioP2
9884;SDS011;4981;50.966;4.842;2022-09-09T00:00:40;1.47;;;0.90;;
9884;SDS011;4981;50.966;4.842;2022-09-09T00:03:10;4.67;;;1.23;;
9884;SDS011;4981;50.966;4.842;2022-09-09T00:05:42;3.53;;;1.00;;
9884;SDS011;4981;50.966;4.842;2022-09-09T00:08:13;2.53;;;1.00;;
9884;SDS011;4981;50.966;4.842;2022-09-09T00:10:43;3.87;;;1.10;;
9884;SDS011;4981;50.966;4.842;2022-09-09T00:13:13;6.00;;;1.10;;
9884;SDS011;4981;50.966;4.842;2022-09-09T00:15:43;4.47;;;0.90;;
9884;SDS011;4981;50.966;4.842;2022-09-09T00:18:16;6.27;;;1.23;;
9884;SDS011;4981;50.966;4.842;2022-09-09T00:20:52;3.57;;;1.10;;
9884;SDS011;4981;50.966;4.842;2022-09-09T00:23:23;6.27;;;1.20;;
9884;SDS011;4981;50.966;4.842;2022-09-09T00:25:54;2.13;;;0.80;;
9884;SDS011;4981;50.966;4.842;2022-09-09T00:28:25;9.47;;;1.17;;
9884;SDS011;4981;50.966;4.842;2022-09-09T00:30:56;4.27;;;0.97;;
9884;SDS011;4981;50.966;4.842;2022-09-09T00:33:26;6.90;;;1.20;;
9884;SDS011;4981;50.966;4.842;2022-09-09T00:35:56;4.23;;;1.20;;
9884;SDS011;4981;50.966;4.842;2022-09-09T00:38:25;3.17;;;1.17;;
9884;SDS011;4981;50.966;4.842;2022-09-09T00:40:56;3.80;;;1.00;;
9884;SDS011;4981;50.966;4.842;2022-09-09T00:43:29;3.63;;;1.03;;
9884;SDS011;4981;50.966;4.842;2022-09-09T00:46:10;4.57;;;1.27;;
9884;SDS011;4981;50.966;4.842;2022-09-09T00:48:44;5.90;;;1.20;;
9884;SDS011;4981;50.966;4.842;2022-09-09T00:51:21;6.30;;;1.43;;
9884;SDS011;4981;50.966;4.842;2022-09-09T00:53:58;5.90;;;1.10;;
9884;SDS011;4981;50.966;4.842;2022-09-09T00:56:29;2.80;;;1.20;;
9884;SDS011;4981;50.966;4.842;2022-09-09T00:58:59;4.80;;;1.00;;
9884;SDS011;4981;50.966;4.842;2022-09-09T01:01:30;4.43;;;1.40;;
9884;SDS011;4981;50.966;4.842;2022-09-09T01:03:57;5.37;;;1.40;;
9884;SDS011;4981;50.966;4.842;2022-09-09T01:06:30;4.57;;;1.33;;
9884;SDS011;4981;50.966;4.842;2022-09-09T01:09:01;4.80;;;1.33;;
9884;SDS011;4981;50.966;4.842;2022-09-09T01:11:32;3.93;;;1.27;;
9884;SDS011;4981;50.966;4.842;2022-09-09T01:14:10;5.03;;;1.20;;
9884;SDS011;4981;50.966;4.842;2022-09-09T01:16:43;6.10;;;1.43;;
9884;SDS011;4981;50.966;4.842;2022-09-09T01:19:14;5.60;;;1.67;;
9884;SDS011;4981;50.966;4.842;2022-09-09T01:21:49;3.13;;;1.27;;
9884;SDS011;4981;50.966;4.842;2022-09-09T01:24:25;7.50;;;1.50;;
9884;SDS011;4981;50.966;4.842;2022-09-09T01:26:58;5.17;;;1.50;;
9884;SDS011;4981;50.966;4.842;2022-09-09T01:29:27;5.53;;;1.40;;
9884;SDS011;4981;50.966;4.842;2022-09-09T01:31:56;7.33;;;1.53;;
9884;SDS011;4981;50.966;4.842;2022-09-09T01:34:25;8.97;;;1.40;;
9884;SDS011;4981;50.966;4.842;2022-09-09T01:36:57;4.83;;;1.63;;
9884;SDS011;4981;50.966;4.842;2022-09-09T01:39:27;3.80;;;1.23;;
9884;SDS011;4981;50.966;4.842;2022-09-09T01:41:55;6.27;;;1.10;;
9884;SDS011;4981;50.966;4.842;2022-09-09T01:44:24;5.10;;;1.70;;
9884;SDS011;4981;50.966;4.842;2022-09-09T01:46:53;6.13;;;1.53;;
9884;SDS011;4981;50.966;4.842;2022-09-09T01:49:20;4.70;;;1.13;;
9884;SDS011;4981;50.966;4.842;2022-09-09T01:51:49;4.97;;;1.70;;
9884;SDS011;4981;50.966;4.842;2022-09-09T01:54:17;8.73;;;1.60;;
9884;SDS011;4981;50.966;4.842;2022-09-09T01:56:47;7.07;;;1.60;;
9884;SDS011;4981;50.966;4.842;2022-09-09T01:59:27;10.63;;;1.53;;
9884;SDS011;4981;50.966;4.842;2022-09-09T02:02:15;5.97;;;1.47;;
9884;SDS011;4981;50.966;4.842;2022-09-09T02:04:45;6.03;;;1.17;;
9884;SDS011;4981;50.966;4.842;2022-09-09T02:07:19;6.17;;;1.53;;
9884;SDS011;4981;50.966;4.842;2022-09-09T02:09:57;6.27;;;1.70;;
9884;SDS011;4981;50.966;4.842;2022-09-09T02:12:28;5.80;;;1.50;;
9884;SDS011;4981;50.966;4.842;2022-09-09T02:15:00;4.87;;;1.40;;
9884;SDS011;4981;50.966;4.842;2022-09-09T02:17:32;5.30;;;1.33;;
9884;SDS011;4981;50.966;4.842;2022-09-09T02:20:04;6.43;;;1.50;;
9884;SDS011;4981;50.966;4.842;2022-09-09T02:22:34;6.83;;;1.73;;
9884;SDS011;4981;50.966;4.842;2022-09-09T02:25:05;6.50;;;1.50;;
9884;SDS011;4981;50.966;4.842;2022-09-09T02:27:35;4.67;;;1.53;;
9884;SDS011;4981;50.966;4.842;2022-09-09T02:30:05;4.60;;;1.60;;
9884;SDS011;4981;50.966;4.842;2022-09-09T02:32:33;5.43;;;1.30;;
9884;SDS011;4981;50.966;4.842;2022-09-09T02:35:03;5.40;;;1.53;;
9884;SDS011;4981;50.966;4.842;2022-09-09T02:37:36;5.10;;;1.37;;
9884;SDS011;4981;50.966;4.842;2022-09-09T02:40:05;8.93;;;1.80;;
9884;SDS011;4981;50.966;4.842;2022-09-09T02:42:38;5.93;;;1.43;;
9884;SDS011;4981;50.966;4.842;2022-09-09T02:45:09;10.87;;;1.67;;
9884;SDS011;4981;50.966;4.842;2022-09-09T02:47:38;4.77;;;1.20;;
9884;SDS011;4981;50.966;4.842;2022-09-09T02:50:12;7.83;;;1.60;;
9884;SDS011;4981;50.966;4.842;2022-09-09T02:52:52;6.03;;;1.40;;
9884;SDS011;4981;50.966;4.842;2022-09-09T02:55:26;9.33;;;1.70;;
9884;SDS011;4981;50.966;4.842;2022-09-09T02:57:57;6.93;;;1.30;;
9884;SDS011;4981;50.966;4.842;2022-09-09T03:00:27;5.73;;;1.60;;
9884;SDS011;4981;50.966;4.842;2022-09-09T03:02:55;7.60;;;1.73;;
9884;SDS011;4981;50.966;4.842;2022-09-09T03:05:22;8.70;;;1.90;;
9884;SDS011;4981;50.966;4.842;2022-09-09T03:07:50;6.70;;;1.50;;
9884;SDS011;4981;50.966;4.842;2022-09-09T03:10:18;5.60;;;1.60;;
9884;SDS011;4981;50.966;4.842;2022-09-09T03:12:45;6.70;;;2.00;;
9884;SDS011;4981;50.966;4.842;2022-09-09T03:15:13;7.40;;;1.50;;
9884;SDS011;4981;50.966;4.842;2022-09-09T03:17:42;10.13;;;2.20;;
9884;SDS011;4981;50.966;4.842;2022-09-09T03:20:10;7.53;;;1.93;;
9884;SDS011;4981;50.966;4.842;2022-09-09T03:22:37;6.67;;;1.87;;
9884;SDS011;4981;50.966;4.842;2022-09-09T03:25:05;8.83;;;1.90;;
9884;SDS011;4981;50.966;4.842;2022-09-09T03:27:33;7.20;;;2.00;;
9884;SDS011;4981;50.966;4.842;2022-09-09T03:30:00;5.53;;;1.57;;
9884;SDS011;4981;50.966;4.842;2022-09-09T03:32:29;9.10;;;2.00;;
9884;SDS011;4981;50.966;4.842;2022-09-09T03:34:58;8.93;;;1.90;;
9884;SDS011;4981;50.966;4.842;2022-09-09T03:37:25;11.87;;;1.93;;
9884;SDS011;4981;50.966;4.842;2022-09-09T03:39:53;11.40;;;1.90;;
9884;SDS011;4981;50.966;4.842;2022-09-09T03:42:21;10.70;;;2.27;;
9884;SDS011;4981;50.966;4.842;2022-09-09T03:44:48;7.73;;;1.83;;
9884;SDS011;4981;50.966;4.842;2022-09-09T03:47:16;4.77;;;1.77;;
9884;SDS011;4981;50.966;4.842;2022-09-09T03:49:44;8.50;;;1.90;;
9884;SDS011;4981;50.966;4.842;2022-09-09T03:52:13;7.47;;;1.60;;
9884;SDS011;4981;50.966;4.842;2022-09-09T03:54:41;8.20;;;1.57;;
9884;SDS011;4981;50.966;4.842;2022-09-09T03:57:09;7.30;;;1.63;;
9884;SDS011;4981;50.966;4.842;2022-09-09T03:59:37;9.10;;;1.67;;
9884;SDS011;4981;50.966;4.842;2022-09-09T04:02:04;7.87;;;2.30;;
9884;SDS011;4981;50.966;4.842;2022-09-09T04:04:32;3.93;;;1.53;;
9884;SDS011;4981;50.966;4.842;2022-09-09T04:06:59;7.90;;;1.90;;
9884;SDS011;4981;50.966;4.842;2022-09-09T04:09:28;10.27;;;1.90;;
9884;SDS011;4981;50.966;4.842;2022-09-09T04:11:56;6.37;;;1.63;;
9884;SDS011;4981;50.966;4.842;2022-09-09T04:14:23;7.97;;;2.50;;
9884;SDS011;4981;50.966;4.842;2022-09-09T04:16:53;8.37;;;1.83;;
9884;SDS011;4981;50.966;4.842;2022-09-09T04:19:23;7.90;;;1.70;;
9884;SDS011;4981;50.966;4.842;2022-09-09T04:21:51;10.87;;;1.80;;
9884;SDS011;4981;50.966;4.842;2022-09-09T04:24:18;8.73;;;1.83;;
9884;SDS011;4981;50.966;4.842;2022-09-09T04:26:48;7.33;;;1.83;;
9884;SDS011;4981;50.966;4.842;2022-09-09T04:29:15;7.73;;;2.43;;
9884;SDS011;4981;50.966;4.842;2022-09-09T04:31:43;10.03;;;2.00;;
9884;SDS011;4981;50.966;4.842;2022-09-09T04:34:11;8.40;;;1.73;;
9884;SDS011;4981;50.966;4.842;2022-09-09T04:36:38;11.40;;;2.07;;
9884;SDS011;4981;50.966;4.842;2022-09-09T04:39:06;10.87;;;1.73;;
9884;SDS011;4981;50.966;4.842;2022-09-09T04:41:34;8.90;;;1.67;;
9884;SDS011;4981;50.966;4.842;2022-09-09T04:44:04;11.80;;;1.97;;
9884;SDS011;4981;50.966;4.842;2022-09-09T04:46:31;8.53;;;1.80;;
9884;SDS011;4981;50.966;4.842;2022-09-09T04:49:00;6.20;;;1.60;;
9884;SDS011;4981;50.966;4.842;2022-09-09T04:51:27;6.43;;;1.90;;
9884;SDS011;4981;50.966;4.842;2022-09-09T04:53:56;9.23;;;1.80;;
9884;SDS011;4981;50.966;4.842;2022-09-09T04:56:23;9.00;;;2.30;;
9884;SDS011;4981;50.966;4.842;2022-09-09T04:58:53;5.53;;;1.40;;
9884;SDS011;4981;50.966;4.842;2022-09-09T05:01:22;5.83;;;2.10;;
9884;SDS011;4981;50.966;4.842;2022-09-09T05:03:50;7.93;;;2.10;;
9884;SDS011;4981;50.966;4.842;2022-09-09T05:06:19;7.60;;;1.77;;
9884;SDS011;4981;50.966;4.842;2022-09-09T05:08:47;8.03;;;2.23;;
9884;SDS011;4981;50.966;4.842;2022-09-09T05:11:16;10.47;;;2.23;;
9884;SDS011;4981;50.966;4.842;2022-09-09T05:13:45;10.80;;;2.90;;
9884;SDS011;4981;50.966;4.842;2022-09-09T05:16:13;8.13;;;2.20;;
9884;SDS011;4981;50.966;4.842;2022-09-09T05:18:42;7.77;;;2.13;;
9884;SDS011;4981;50.966;4.842;2022-09-09T05:21:11;9.63;;;2.07;;
9884;SDS011;4981;50.966;4.842;2022-09-09T05:23:40;7.07;;;2.17;;
9884;SDS011;4981;50.966;4.842;2022-09-09T05:26:09;10.83;;;2.53;;
9884;SDS011;4981;50.966;4.842;2022-09-09T05:28:38;10.00;;;2.80;;
9884;SDS011;4981;50.966;4.842;2022-09-09T05:31:07;16.23;;;2.60;;
9884;SDS011;4981;50.966;4.842;2022-09-09T05:33:36;7.77;;;2.20;;
9884;SDS011;4981;50.966;4.842;2022-09-09T05:36:08;9.23;;;1.97;;
9884;SDS011;4981;50.966;4.842;2022-09-09T05:38:38;10.40;;;2.23;;
9884;SDS011;4981;50.966;4.842;2022-09-09T05:41:06;10.63;;;2.80;;
9884;SDS011;4981;50.966;4.842;2022-09-09T05:43:35;6.80;;;2.20;;
9884;SDS011;4981;50.966;4.842;2022-09-09T05:46:03;10.37;;;2.47;;
9884;SDS011;4981;50.966;4.842;2022-09-09T05:48:33;12.00;;;3.23;;
9884;SDS011;4981;50.966;4.842;2022-09-09T05:51:01;10.37;;;3.10;;
9884;SDS011;4981;50.966;4.842;2022-09-09T05:53:30;12.30;;;2.70;;
9884;SDS011;4981;50.966;4.842;2022-09-09T05:55:59;12.13;;;2.63;;
9884;SDS011;4981;50.966;4.842;2022-09-09T05:58:28;14.57;;;2.90;;
9884;SDS011;4981;50.966;4.842;2022-09-09T06:01:03;9.57;;;2.50;;
9884;SDS011;4981;50.966;4.842;2022-09-09T06:03:31;5.43;;;1.90;;
9884;SDS011;4981;50.966;4.842;2022-09-09T06:06:00;8.17;;;2.47;;
9884;SDS011;4981;50.966;4.842;2022-09-09T06:08:32;7.17;;;2.70;;
9884;SDS011;4981;50.966;4.842;2022-09-09T06:11:02;8.87;;;1.90;;
9884;SDS011;4981;50.966;4.842;2022-09-09T06:13:31;15.33;;;2.47;;
9884;SDS011;4981;50.966;4.842;2022-09-09T06:15:58;7.33;;;2.33;;
9884;SDS011;4981;50.966;4.842;2022-09-09T06:18:26;10.47;;;1.90;;
9884;SDS011;4981;50.966;4.842;2022-09-09T06:20:55;11.40;;;2.50;;
9884;SDS011;4981;50.966;4.842;2022-09-09T06:23:23;9.37;;;2.13;;
9884;SDS011;4981;50.966;4.842;2022-09-09T06:25:52;7.07;;;1.87;;
9884;SDS011;4981;50.966;4.842;2022-09-09T06:28:27;7.87;;;1.93;;
9884;SDS011;4981;50.966;4.842;2022-09-09T06:30:57;6.13;;;1.70;;
9884;SDS011;4981;50.966;4.842;2022-09-09T06:33:25;9.37;;;1.93;;
9884;SDS011;4981;50.966;4.842;2022-09-09T06:35:53;9.47;;;1.80;;
9884;SDS011;4981;50.966;4.842;2022-09-09T06:38:22;7.03;;;1.60;;
9884;SDS011;4981;50.966;4.842;2022-09-09T06:40:52;11.83;;;2.17;;
9884;SDS011;4981;50.966;4.842;2022-09-09T06:43:20;10.00;;;2.33;;
9884;SDS011;4981;50.966;4.842;2022-09-09T06:45:55;7.73;;;1.80;;
9884;SDS011;4981;50.966;4.842;2022-09-09T06:48:22;9.93;;;1.73;;
9884;SDS011;4981;50.966;4.842;2022-09-09T06:50:51;6.97;;;1.80;;
9884;SDS011;4981;50.966;4.842;2022-09-09T06:53:19;7.93;;;1.70;;
9884;SDS011;4981;50.966;4.842;2022-09-09T06:55:46;5.57;;;1.57;;
9884;SDS011;4981;50.966;4.842;2022-09-09T06:58:16;12.00;;;2.47;;
9884;SDS011;4981;50.966;4.842;2022-09-09T07:00:44;13.00;;;2.50;;
9884;SDS011;4981;50.966;4.842;2022-09-09T07:03:11;6.83;;;1.90;;
9884;SDS011;4981;50.966;4.842;2022-09-09T07:05:39;7.67;;;1.97;;
9884;SDS011;4981;50.966;4.842;2022-09-09T07:08:06;6.70;;;1.73;;
9884;SDS011;4981;50.966;4.842;2022-09-09T07:10:34;5.27;;;1.27;;
9884;SDS011;4981;50.966;4.842;2022-09-09T07:13:01;6.87;;;1.67;;
9884;SDS011;4981;50.966;4.842;2022-09-09T07:15:31;7.43;;;2.13;;
9884;SDS011;4981;50.966;4.842;2022-09-09T07:18:00;6.50;;;1.83;;
9884;SDS011;4981;50.966;4.842;2022-09-09T07:20:29;9.40;;;2.07;;
9884;SDS011;4981;50.966;4.842;2022-09-09T07:22:56;8.20;;;1.97;;
9884;SDS011;4981;50.966;4.842;2022-09-09T07:25:24;8.17;;;1.73;;
9884;SDS011;4981;50.966;4.842;2022-09-09T07:27:54;6.57;;;1.80;;
9884;SDS011;4981;50.966;4.842;2022-09-09T07:30:22;10.70;;;2.17;;
9884;SDS011;4981;50.966;4.842;2022-09-09T07:32:52;9.23;;;1.60;;
9884;SDS011;4981;50.966;4.842;2022-09-09T07:35:22;7.40;;;1.73;;
9884;SDS011;4981;50.966;4.842;2022-09-09T07:37:49;7.63;;;1.93;;
9884;SDS011;4981;50.966;4.842;2022-09-09T07:40:17;7.47;;;1.83;;
9884;SDS011;4981;50.966;4.842;2022-09-09T07:42:46;11.43;;;2.00;;
9884;SDS011;4981;50.966;4.842;2022-09-09T07:45:14;8.67;;;2.00;;
9884;SDS011;4981;50.966;4.842;2022-09-09T07:47:42;7.77;;;2.10;;
9884;SDS011;4981;50.966;4.842;2022-09-09T07:50:10;6.20;;;1.60;;
9884;SDS011;4981;50.966;4.842;2022-09-09T07:52:38;7.70;;;1.93;;
9884;SDS011;4981;50.966;4.842;2022-09-09T07:55:05;9.73;;;2.50;;
9884;SDS011;4981;50.966;4.842;2022-09-09T07:57:34;8.47;;;1.80;;
9884;SDS011;4981;50.966;4.842;2022-09-09T08:00:03;6.10;;;1.80;;
9884;SDS011;4981;50.966;4.842;2022-09-09T08:02:33;10.13;;;1.90;;
9884;SDS011;4981;50.966;4.842;2022-09-09T08:05:01;7.63;;;1.67;;
9884;SDS011;4981;50.966;4.842;2022-09-09T08:07:29;6.73;;;2.00;;
9884;SDS011;4981;50.966;4.842;2022-09-09T08:09:57;6.43;;;1.90;;
9884;SDS011;4981;50.966;4.842;2022-09-09T08:12:24;11.43;;;2.07;;
9884;SDS011;4981;50.966;4.842;2022-09-09T08:14:52;8.50;;;1.70;;
9884;SDS011;4981;50.966;4.842;2022-09-09T08:17:20;10.87;;;2.17;;
9884;SDS011;4981;50.966;4.842;2022-09-09T08:19:48;9.00;;;2.00;;
9884;SDS011;4981;50.966;4.842;2022-09-09T08:22:15;6.73;;;1.70;;
9884;SDS011;4981;50.966;4.842;2022-09-09T08:24:45;7.47;;;1.87;;
9884;SDS011;4981;50.966;4.842;2022-09-09T08:27:12;6.73;;;1.83;;
9884;SDS011;4981;50.966;4.842;2022-09-09T08:29:40;9.63;;;1.43;;
9884;SDS011;4981;50.966;4.842;2022-09-09T08:32:07;5.47;;;1.50;;
9884;SDS011;4981;50.966;4.842;2022-09-09T08:34:35;7.47;;;1.67;;
9884;SDS011;4981;50.966;4.842;2022-09-09T08:37:02;5.60;;;1.50;;
9884;SDS011;4981;50.966;4.842;2022-09-09T08:39:30;7.10;;;1.70;;
9884;SDS011;4981;50.966;4.842;2022-09-09T08:45:05;6.03;;;1.30;;
9884;SDS011;4981;50.966;4.842;2022-09-09T08:47:44;5.63;;;1.43;;
9884;SDS011;4981;50.966;4.842;2022-09-09T08:50:17;10.50;;;2.20;;
9884;SDS011;4981;50.966;4.842;2022-09-09T08:52:49;7.47;;;1.33;;
9884;SDS011;4981;50.966;4.842;2022-09-09T08:55:21;6.90;;;1.73;;
9884;SDS011;4981;50.966;4.842;2022-09-09T08:57:49;4.30;;;1.33;;
9884;SDS011;4981;50.966;4.842;2022-09-09T09:00:20;8.73;;;1.43;;
9884;SDS011;4981;50.966;4.842;2022-09-09T09:02:52;8.37;;;1.60;;
9884;SDS011;4981;50.966;4.842;2022-09-09T09:05:23;9.50;;;1.80;;
9884;SDS011;4981;50.966;4.842;2022-09-09T09:07:55;4.97;;;1.23;;
9884;SDS011;4981;50.966;4.842;2022-09-09T09:10:31;6.13;;;1.10;;
9884;SDS011;4981;50.966;4.842;2022-09-09T09:13:01;3.33;;;1.03;;
9884;SDS011;4981;50.966;4.842;2022-09-09T09:15:32;6.33;;;1.00;;
9884;SDS011;4981;50.966;4.842;2022-09-09T09:18:03;10.73;;;1.63;;
9884;SDS011;4981;50.966;4.842;2022-09-09T09:20:32;5.30;;;1.20;;
9884;SDS011;4981;50.966;4.842;2022-09-09T09:23:02;8.70;;;1.57;;
9884;SDS011;4981;50.966;4.842;2022-09-09T09:25:34;4.77;;;1.80;;
9884;SDS011;4981;50.966;4.842;2022-09-09T09:28:03;6.93;;;1.20;;
9884;SDS011;4981;50.966;4.842;2022-09-09T09:30:38;9.40;;;2.00;;
9884;SDS011;4981;50.966;4.842;2022-09-09T09:33:08;4.63;;;1.50;;
9884;SDS011;4981;50.966;4.842;2022-09-09T09:35:40;6.23;;;1.77;;
9884;SDS011;4981;50.966;4.842;2022-09-09T09:38:10;5.57;;;1.47;;
9884;SDS011;4981;50.966;4.842;2022-09-09T09:40:47;3.63;;;1.30;;
9884;SDS011;4981;50.966;4.842;2022-09-09T09:43:21;7.50;;;1.80;;
9884;SDS011;4981;50.966;4.842;2022-09-09T09:45:52;5.63;;;1.70;;
9884;SDS011;4981;50.966;4.842;2022-09-09T09:48:20;8.33;;;2.43;;
9884;SDS011;4981;50.966;4.842;2022-09-09T09:50:48;8.40;;;1.60;;
9884;SDS011;4981;50.966;4.842;2022-09-09T09:53:18;4.83;;;1.30;;
9884;SDS011;4981;50.966;4.842;2022-09-09T09:55:48;6.13;;;2.10;;
9884;SDS011;4981;50.966;4.842;2022-09-09T09:58:18;7.33;;;2.80;;
9884;SDS011;4981;50.966;4.842;2022-09-09T10:00:49;5.73;;;1.87;;
9884;SDS011;4981;50.966;4.842;2022-09-09T10:03:21;7.80;;;2.43;;
9884;SDS011;4981;50.966;4.842;2022-09-09T10:05:49;8.27;;;1.40;;
9884;SDS011;4981;50.966;4.842;2022-09-09T10:08:17;8.77;;;1.60;;
9884;SDS011;4981;50.966;4.842;2022-09-09T10:13:44;6.87;;;1.50;;
9884;SDS011;4981;50.966;4.842;2022-09-09T10:16:20;6.33;;;1.40;;
9884;SDS011;4981;50.966;4.842;2022-09-09T10:19:00;5.17;;;1.47;;
9884;SDS011;4981;50.966;4.842;2022-09-09T10:21:38;6.67;;;1.70;;
9884;SDS011;4981;50.966;4.842;2022-09-09T10:24:23;5.13;;;1.57;;
9884;SDS011;4981;50.966;4.842;2022-09-09T10:26:58;5.20;;;1.53;;
9884;SDS011;4981;50.966;4.842;2022-09-09T10:29:33;5.03;;;1.20;;
9884;SDS011;4981;50.966;4.842;2022-09-09T10:32:23;6.03;;;1.57;;
9884;SDS011;4981;50.966;4.842;2022-09-09T10:34:58;7.27;;;1.90;;
9884;SDS011;4981;50.966;4.842;2022-09-09T10:37:40;4.17;;;1.80;;
9884;SDS011;4981;50.966;4.842;2022-09-09T10:40:15;8.97;;;1.67;;
9884;SDS011;4981;50.966;4.842;2022-09-09T10:42:45;10.33;;;2.20;;
9884;SDS011;4981;50.966;4.842;2022-09-09T10:45:15;5.27;;;1.50;;
9884;SDS011;4981;50.966;4.842;2022-09-09T10:50:39;9.73;;;2.20;;
9884;SDS011;4981;50.966;4.842;2022-09-09T10:53:10;7.30;;;2.30;;
9884;SDS011;4981;50.966;4.842;2022-09-09T10:55:45;6.57;;;1.37;;
9884;SDS011;4981;50.966;4.842;2022-09-09T10:58:18;5.17;;;1.77;;
9884;SDS011;4981;50.966;4.842;2022-09-09T11:00:47;4.13;;;1.43;;
9884;SDS011;4981;50.966;4.842;2022-09-09T11:03:18;4.17;;;1.20;;
9884;SDS011;4981;50.966;4.842;2022-09-09T11:05:49;7.77;;;1.90;;
9884;SDS011;4981;50.966;4.842;2022-09-09T11:08:18;5.07;;;1.73;;
9884;SDS011;4981;50.966;4.842;2022-09-09T11:10:48;5.33;;;1.77;;
9884;SDS011;4981;50.966;4.842;2022-09-09T11:13:22;6.97;;;1.63;;
9884;SDS011;4981;50.966;4.842;2022-09-09T11:15:59;7.20;;;1.90;;
9884;SDS011;4981;50.966;4.842;2022-09-09T11:18:28;5.30;;;1.27;;
9884;SDS011;4981;50.966;4.842;2022-09-09T11:21:00;7.90;;;1.60;;
9884;SDS011;4981;50.966;4.842;2022-09-09T11:23:39;5.80;;;1.83;;
9884;SDS011;4981;50.966;4.842;2022-09-09T11:26:07;11.03;;;2.13;;
9884;SDS011;4981;50.966;4.842;2022-09-09T11:28:41;8.40;;;1.83;;
9884;SDS011;4981;50.966;4.842;2022-09-09T11:31:28;6.03;;;1.73;;
9884;SDS011;4981;50.966;4.842;2022-09-09T11:34:04;5.00;;;1.60;;
9884;SDS011;4981;50.966;4.842;2022-09-09T11:39:25;6.67;;;1.60;;
9884;SDS011;4981;50.966;4.842;2022-09-09T11:42:04;7.43;;;2.30;;
9884;SDS011;4981;50.966;4.842;2022-09-09T11:44:32;7.53;;;1.80;;
9884;SDS011;4981;50.966;4.842;2022-09-09T11:47:00;8.80;;;1.67;;
9884;SDS011;4981;50.966;4.842;2022-09-09T11:49:28;6.57;;;1.70;;
9884;SDS011;4981;50.966;4.842;2022-09-09T11:51:56;4.33;;;1.50;;
9884;SDS011;4981;50.966;4.842;2022-09-09T11:54:29;5.03;;;1.10;;
9884;SDS011;4981;50.966;4.842;2022-09-09T11:56:57;5.67;;;1.70;;
9884;SDS011;4981;50.966;4.842;2022-09-09T11:59:26;8.30;;;1.50;;
9884;SDS011;4981;50.966;4.842;2022-09-09T12:01:57;3.67;;;1.10;;
9884;SDS011;4981;50.966;4.842;2022-09-09T12:04:27;6.13;;;1.30;;
9884;SDS011;4981;50.966;4.842;2022-09-09T12:06:57;5.50;;;1.33;;
9884;SDS011;4981;50.966;4.842;2022-09-09T12:09:29;5.50;;;1.50;;
9884;SDS011;4981;50.966;4.842;2022-09-09T12:12:07;1.70;;;0.77;;
9884;SDS011;4981;50.966;4.842;2022-09-09T12:14:55;3.80;;;1.13;;
9884;SDS011;4981;50.966;4.842;2022-09-09T12:17:24;5.13;;;1.53;;
9884;SDS011;4981;50.966;4.842;2022-09-09T12:19:59;4.13;;;1.30;;
9884;SDS011;4981;50.966;4.842;2022-09-09T12:22:31;3.47;;;1.40;;
9884;SDS011;4981;50.966;4.842;2022-09-09T12:25:06;3.77;;;1.07;;
9884;SDS011;4981;50.966;4.842;2022-09-09T12:27:40;4.47;;;0.90;;
9884;SDS011;4981;50.966;4.842;2022-09-09T12:30:11;4.53;;;1.30;;
9884;SDS011;4981;50.966;4.842;2022-09-09T12:32:39;5.53;;;1.17;;
9884;SDS011;4981;50.966;4.842;2022-09-09T12:35:10;4.77;;;1.30;;
9884;SDS011;4981;50.966;4.842;2022-09-09T12:37:39;4.40;;;1.00;;
9884;SDS011;4981;50.966;4.842;2022-09-09T12:40:18;2.73;;;0.90;;
9884;SDS011;4981;50.966;4.842;2022-09-09T12:42:46;5.50;;;1.47;;
9884;SDS011;4981;50.966;4.842;2022-09-09T12:45:16;9.40;;;1.27;;
9884;SDS011;4981;50.966;4.842;2022-09-09T12:47:44;6.73;;;1.50;;
9884;SDS011;4981;50.966;4.842;2022-09-09T12:50:16;2.83;;;0.83;;
9884;SDS011;4981;50.966;4.842;2022-09-09T12:52:45;3.93;;;1.17;;
9884;SDS011;4981;50.966;4.842;2022-09-09T12:55:17;4.47;;;1.23;;
9884;SDS011;4981;50.966;4.842;2022-09-09T12:57:46;5.03;;;1.10;;
9884;SDS011;4981;50.966;4.842;2022-09-09T13:00:16;3.37;;;1.20;;
9884;SDS011;4981;50.966;4.842;2022-09-09T13:02:48;3.73;;;0.93;;
9884;SDS011;4981;50.966;4.842;2022-09-09T13:05:17;6.60;;;1.30;;
9884;SDS011;4981;50.966;4.842;2022-09-09T13:07:46;3.73;;;1.20;;
9884;SDS011;4981;50.966;4.842;2022-09-09T13:10:15;3.83;;;1.00;;
9884;SDS011;4981;50.966;4.842;2022-09-09T13:12:46;3.57;;;1.10;;
9884;SDS011;4981;50.966;4.842;2022-09-09T13:15:16;3.90;;;1.13;;
9884;SDS011;4981;50.966;4.842;2022-09-09T13:17:51;3.70;;;1.10;;
9884;SDS011;4981;50.966;4.842;2022-09-09T13:20:20;9.03;;;1.40;;
9884;SDS011;4981;50.966;4.842;2022-09-09T13:22:49;5.60;;;1.40;;
9884;SDS011;4981;50.966;4.842;2022-09-09T13:25:18;4.07;;;1.00;;
9884;SDS011;4981;50.966;4.842;2022-09-09T13:27:53;4.43;;;1.60;;
9884;SDS011;4981;50.966;4.842;2022-09-09T13:30:22;3.77;;;1.00;;
9884;SDS011;4981;50.966;4.842;2022-09-09T13:32:59;2.73;;;0.97;;
9884;SDS011;4981;50.966;4.842;2022-09-09T13:35:32;2.87;;;1.03;;
9884;SDS011;4981;50.966;4.842;2022-09-09T13:38:06;5.07;;;1.37;;
9884;SDS011;4981;50.966;4.842;2022-09-09T13:40:35;3.87;;;1.33;;
9884;SDS011;4981;50.966;4.842;2022-09-09T13:43:04;6.20;;;1.20;;
9884;SDS011;4981;50.966;4.842;2022-09-09T13:45:33;3.23;;;1.30;;
9884;SDS011;4981;50.966;4.842;2022-09-09T13:48:08;5.30;;;1.20;;
9884;SDS011;4981;50.966;4.842;2022-09-09T13:50:37;2.63;;;0.83;;
9884;SDS011;4981;50.966;4.842;2022-09-09T13:53:06;4.43;;;1.33;;
9884;SDS011;4981;50.966;4.842;2022-09-09T13:55:36;4.07;;;0.90;;
9884;SDS011;4981;50.966;4.842;2022-09-09T13:58:05;2.97;;;1.10;;
9884;SDS011;4981;50.966;4.842;2022-09-09T14:00:33;2.97;;;0.80;;
9884;SDS011;4981;50.966;4.842;2022-09-09T14:03:01;5.20;;;1.20;;
9884;SDS011;4981;50.966;4.842;2022-09-09T14:05:29;2.57;;;1.00;;
9884;SDS011;4981;50.966;4.842;2022-09-09T14:07:57;6.23;;;1.10;;
9884;SDS011;4981;50.966;4.842;2022-09-09T14:10:25;3.20;;;0.77;;
9884;SDS011;4981;50.966;4.842;2022-09-09T14:12:53;3.13;;;0.80;;
9884;SDS011;4981;50.966;4.842;2022-09-09T14:15:22;4.07;;;1.13;;
9884;SDS011;4981;50.966;4.842;2022-09-09T14:17:50;2.13;;;0.77;;
9884;SDS011;4981;50.966;4.842;2022-09-09T14:20:17;3.50;;;1.07;;
9884;SDS011;4981;50.966;4.842;2022-09-09T14:22:45;3.93;;;1.10;;
9884;SDS011;4981;50.966;4.842;2022-09-09T14:25:13;4.43;;;1.30;;
9884;SDS011;4981;50.966;4.842;2022-09-09T14:27:41;3.23;;;0.93;;
9884;SDS011;4981;50.966;4.842;2022-09-09T14:30:10;3.83;;;1.17;;
9884;SDS011;4981;50.966;4.842;2022-09-09T14:32:39;3.37;;;1.10;;
9884;SDS011;4981;50.966;4.842;2022-09-09T14:35:07;2.43;;;1.00;;
9884;SDS011;4981;50.966;4.842;2022-09-09T14:37:34;2.47;;;0.80;;
9884;SDS011;4981;50.966;4.842;2022-09-09T14:40:04;2.77;;;1.00;;
9884;SDS011;4981;50.966;4.842;2022-09-09T14:42:32;2.60;;;0.70;;
9884;SDS011;4981;50.966;4.842;2022-09-09T14:44:59;1.77;;;0.73;;
9884;SDS011;4981;50.966;4.842;2022-09-09T14:47:27;3.33;;;0.97;;
9884;SDS011;4981;50.966;4.842;2022-09-09T14:49:56;2.17;;;0.80;;
9884;SDS011;4981;50.966;4.842;2022-09-09T14:52:26;2.23;;;0.90;;
9884;SDS011;4981;50.966;4.842;2022-09-09T14:54:54;3.90;;;1.10;;
9884;SDS011;4981;50.966;4.842;2022-09-09T14:57:22;3.00;;;0.83;;
9884;SDS011;4981;50.966;4.842;2022-09-09T14:59:49;2.97;;;1.10;;
9884;SDS011;4981;50.966;4.842;2022-09-09T15:02:18;4.60;;;1.20;;
9884;SDS011;4981;50.966;4.842;2022-09-09T15:04:46;1.77;;;0.80;;
9884;SDS011;4981;50.966;4.842;2022-09-09T15:07:16;3.50;;;1.00;;
9884;SDS011;4981;50.966;4.842;2022-09-09T15:09:46;4.13;;;1.40;;
9884;SDS011;4981;50.966;4.842;2022-09-09T15:12:14;3.73;;;1.03;;
9884;SDS011;4981;50.966;4.842;2022-09-09T15:14:43;3.10;;;1.00;;
9884;SDS011;4981;50.966;4.842;2022-09-09T15:17:11;4.50;;;1.00;;
9884;SDS011;4981;50.966;4.842;2022-09-09T15:19:39;2.57;;;1.00;;
9884;SDS011;4981;50.966;4.842;2022-09-09T15:22:07;6.93;;;0.90;;
9884;SDS011;4981;50.966;4.842;2022-09-09T15:24:37;4.70;;;1.23;;
9884;SDS011;4981;50.966;4.842;2022-09-09T15:27:05;3.53;;;0.97;;
9884;SDS011;4981;50.966;4.842;2022-09-09T15:29:32;4.30;;;0.90;;
9884;SDS011;4981;50.966;4.842;2022-09-09T15:31:59;3.33;;;1.40;;
9884;SDS011;4981;50.966;4.842;2022-09-09T15:34:27;4.13;;;1.17;;
9884;SDS011;4981;50.966;4.842;2022-09-09T15:36:55;6.30;;;1.27;;
9884;SDS011;4981;50.966;4.842;2022-09-09T15:39:22;4.20;;;1.20;;
9884;SDS011;4981;50.966;4.842;2022-09-09T15:41:51;4.73;;;1.50;;
9884;SDS011;4981;50.966;4.842;2022-09-09T15:44:19;3.37;;;1.00;;